Time;durP1;ratioP1;P1;durP2;ratioP2;P2;SDS_P1;SDS_P2;PMS_P1;PMS_P2;Temp;Humidity;BMP_temperature;BMP_pressure;BME280_temperature;BME280_humidity;BME280_pressure;Samples;Min_cycle;Max_cycle;Signal;HPM_P1;HPM_P2
2023/03/03 00:00:35;;;;;;;;;;;9.90;99.90;;;;;;5000305;28;19920;-66
2023/03/03 00:03:03;;;;;;;;;;;9.90;99.90;;;;;;4992173;28;19926;-66
2023/03/03 00:05:30;;;;;;;;;;;9.90;99.90;;;;;;4992889;28;19929;-66
2023/03/03 00:07:56;;;;;;;;;;;9.80;99.90;;;;;;4991727;28;20311;-67
2023/03/03 00:10:21;;;;;;;;;;;9.80;99.90;;;;;;4994835;28;19921;-67
2023/03/03 00:12:48;;;;;;;;;;;9.80;99.90;;;;;;4994657;28;20373;-68
2023/03/03 00:15:16;;;;;;;;;;;9.80;99.90;;;;;;4993039;28;19921;-67
2023/03/03 00:17:42;;;;;;;;;;;9.90;99.90;;;;;;4994755;28;20372;-66
2023/03/03 00:20:23;;;;;;;;;;;9.90;99.90;;;;;;4992840;28;19921;-66
2023/03/03 00:22:49;;;;;;;;;;;9.80;99.90;;;;;;5003454;28;19975;-67
2023/03/03 00:25:28;;;;;;;;;;;9.80;99.90;;;;;;4995099;28;20342;-67
2023/03/03 00:27:53;;;;;;;;;;;9.80;99.90;;;;;;4993014;28;19964;-66
2023/03/03 00:30:24;;;;;;;;;;;9.90;99.90;;;;;;4999244;28;20000;-67
2023/03/03 00:32:51;;;;;;;;;;;9.90;99.90;;;;;;4993920;28;20299;-67
2023/03/03 00:35:17;;;;;;;;;;;9.80;99.90;;;;;;4994315;28;19941;-67
2023/03/03 00:37:43;;;;;;;;;;;9.80;99.90;;;;;;4994707;28;20027;-67
2023/03/03 00:40:15;;;;;;;;;;;9.90;99.90;;;;;;4994692;28;19929;-68
2023/03/03 00:42:41;;;;;;;;;;;9.80;99.90;;;;;;4996827;28;20320;-68
2023/03/03 00:45:30;;;;;;;;;;;9.90;99.90;;;;;;4999659;28;19913;-66
2023/03/03 00:47:57;;;;;;;;;;;10.00;99.90;;;;;;4995666;28;20430;-67
2023/03/03 00:50:30;;;;;;;;;;;10.00;99.90;;;;;;4995899;28;19957;-67
2023/03/03 00:53:06;;;;;;;;;;;9.90;99.90;;;;;;4995138;28;19921;-66
2023/03/03 00:55:33;;;;;;;;;;;9.90;99.90;;;;;;5000577;28;19937;-67
2023/03/03 00:57:58;;;;;;;;;;;9.90;99.90;;;;;;5003841;28;20426;-66
2023/03/03 01:00:24;;;;;;;;;;;9.90;99.90;;;;;;5003773;28;20009;-70
2023/03/03 01:02:51;;;;;;;;;;;9.80;99.90;;;;;;4997107;28;20352;-66
2023/03/03 01:05:17;;;;;;;;;;;9.80;99.90;;;;;;4993802;28;20279;-65
2023/03/03 01:07:42;;;;;;;;;;;9.80;99.90;;;;;;4999549;28;19918;-68
2023/03/03 01:10:09;;;;;;;;;;;9.80;99.90;;;;;;5003356;28;20352;-67
2023/03/03 01:12:35;;;;;;;;;;;9.80;99.90;;;;;;5000533;28;19920;-66
2023/03/03 01:15:01;;;;;;;;;;;9.80;99.90;;;;;;4996750;28;19914;-67
2023/03/03 01:17:27;;;;;;;;;;;9.80;99.90;;;;;;4996409;28;20059;-67
2023/03/03 01:19:53;;;;;;;;;;;9.80;99.90;;;;;;4999516;28;19952;-65
2023/03/03 01:22:19;;;;;;;;;;;9.80;99.90;;;;;;4996816;28;20080;-67
2023/03/03 01:24:44;;;;;;;;;;;9.80;99.90;;;;;;4998965;28;19979;-67
2023/03/03 01:27:10;;;;;;;;;;;9.70;99.90;;;;;;4996413;28;20392;-69
2023/03/03 01:29:35;;;;;;;;;;;9.70;99.90;;;;;;4996202;28;19917;-71
2023/03/03 01:32:01;;;;;;;;;;;9.70;99.90;;;;;;4999022;28;19921;-66
2023/03/03 01:34:27;;;;;;;;;;;9.70;99.90;;;;;;4994482;28;20015;-67
2023/03/03 01:36:52;;;;;;;;;;;9.80;99.90;;;;;;4993750;28;19914;-65
2023/03/03 01:39:18;;;;;;;;;;;9.80;99.90;;;;;;4996199;28;19922;-67
2023/03/03 01:41:44;;;;;;;;;;;9.70;99.90;;;;;;4996110;28;19918;-68
2023/03/03 01:44:13;;;;;;;;;;;9.70;99.90;;;;;;4995923;28;19933;-65
2023/03/03 01:46:39;;;;;;;;;;;9.70;99.90;;;;;;4997550;28;19918;-67
2023/03/03 01:49:09;;;;;;;;;;;9.70;99.90;;;;;;5016530;28;20008;-66
2023/03/03 01:51:41;;;;;;;;;;;9.70;99.90;;;;;;4998558;28;19920;-67
2023/03/03 01:54:11;;;;;;;;;;;9.70;99.90;;;;;;4994880;28;19914;-66
2023/03/03 01:56:37;;;;;;;;;;;9.60;99.90;;;;;;4994318;28;19921;-66
2023/03/03 01:59:05;;;;;;;;;;;9.60;99.90;;;;;;4996530;28;19921;-65
2023/03/03 02:01:31;;;;;;;;;;;9.60;99.90;;;;;;5009595;28;19939;-72
2023/03/03 02:03:58;;;;;;;;;;;9.50;99.90;;;;;;5010931;28;20008;-67
2023/03/03 02:06:26;;;;;;;;;;;9.60;99.90;;;;;;5011559;28;19913;-66
2023/03/03 02:09:10;;;;;;;;;;;9.60;99.90;;;;;;5014718;28;19975;-70
2023/03/03 02:11:38;;;;;;;;;;;9.60;99.90;;;;;;5014544;28;19909;-69
2023/03/03 02:14:03;;;;;;;;;;;9.50;99.90;;;;;;5014531;28;20040;-67
2023/03/03 02:16:29;;;;;;;;;;;9.50;99.90;;;;;;5014736;28;20387;-68
2023/03/03 02:18:58;;;;;;;;;;;9.50;99.90;;;;;;5014598;28;19910;-67
2023/03/03 02:21:26;;;;;;;;;;;9.50;99.90;;;;;;5010810;28;19959;-67
2023/03/03 02:24:01;;;;;;;;;;;9.50;99.90;;;;;;5014660;28;19913;-69
2023/03/03 02:26:28;;;;;;;;;;;9.50;99.90;;;;;;5013841;28;19963;-66
2023/03/03 02:28:54;;;;;;;;;;;9.50;99.90;;;;;;5013193;28;19913;-67
2023/03/03 02:31:21;;;;;;;;;;;9.40;99.90;;;;;;5011684;28;19917;-67
2023/03/03 02:33:48;;;;;;;;;;;9.40;99.90;;;;;;5014445;28;19910;-67
2023/03/03 02:36:16;;;;;;;;;;;9.40;99.90;;;;;;4996919;28;19917;-67
2023/03/03 02:38:51;;;;;;;;;;;9.50;99.90;;;;;;4994778;28;19914;-66
2023/03/03 02:41:16;;;;;;;;;;;9.40;99.90;;;;;;4998720;28;19922;-66
2023/03/03 02:43:45;;;;;;;;;;;9.40;99.90;;;;;;4995642;28;20277;-66
2023/03/03 02:46:10;;;;;;;;;;;9.50;99.90;;;;;;4996055;28;19920;-69
2023/03/03 02:48:36;;;;;;;;;;;9.40;99.90;;;;;;5001993;28;19918;-67
2023/03/03 02:51:02;;;;;;;;;;;9.40;99.90;;;;;;4999297;28;19921;-67
2023/03/03 02:53:28;;;;;;;;;;;9.50;99.90;;;;;;4997999;28;19917;-67
2023/03/03 02:55:53;;;;;;;;;;;9.40;99.90;;;;;;5004118;28;19917;-66
2023/03/03 02:58:19;;;;;;;;;;;9.40;99.90;;;;;;4995499;28;19914;-67
2023/03/03 03:00:46;;;;;;;;;;;9.40;99.90;;;;;;4998566;28;19964;-67
2023/03/03 03:03:13;;;;;;;;;;;9.40;99.90;;;;;;4992799;28;19918;-66
2023/03/03 03:05:38;;;;;;;;;;;9.30;99.90;;;;;;4995473;28;19921;-64
2023/03/03 03:08:04;;;;;;;;;;;9.30;99.90;;;;;;4994427;28;19918;-67
2023/03/03 03:10:30;;;;;;;;;;;9.30;99.90;;;;;;4998769;28;19929;-67
2023/03/03 03:12:56;;;;;;;;;;;9.30;99.90;;;;;;5012043;28;19936;-67
2023/03/03 03:15:21;;;;;;;;;;;9.30;99.90;;;;;;4996198;28;20280;-66
2023/03/03 03:17:47;;;;;;;;;;;9.30;99.90;;;;;;4998478;28;19917;-66
2023/03/03 03:20:13;;;;;;;;;;;9.30;99.90;;;;;;4998204;28;19920;-67
2023/03/03 03:22:38;;;;;;;;;;;9.30;99.90;;;;;;5014314;28;19921;-67
2023/03/03 03:25:04;;;;;;;;;;;9.30;99.90;;;;;;4994756;28;19914;-67
2023/03/03 03:27:30;;;;;;;;;;;9.30;99.90;;;;;;4994898;28;20076;-67
2023/03/03 03:29:56;;;;;;;;;;;9.30;99.90;;;;;;4996423;28;19917;-69
2023/03/03 03:32:21;;;;;;;;;;;9.30;99.90;;;;;;4995582;28;19914;-66
2023/03/03 03:34:47;;;;;;;;;;;9.30;99.90;;;;;;4994566;28;19921;-67
2023/03/03 03:37:13;;;;;;;;;;;9.30;99.90;;;;;;4995147;28;19975;-67
2023/03/03 03:39:38;;;;;;;;;;;9.30;99.90;;;;;;4993204;28;19925;-67
2023/03/03 03:42:04;;;;;;;;;;;9.30;99.90;;;;;;4994164;28;19968;-67
2023/03/03 03:44:30;;;;;;;;;;;9.40;99.90;;;;;;4995019;28;19933;-67
2023/03/03 03:46:55;;;;;;;;;;;9.30;99.90;;;;;;4994072;28;19925;-67
2023/03/03 03:49:21;;;;;;;;;;;9.30;99.90;;;;;;4992216;28;19914;-67
2023/03/03 03:51:47;;;;;;;;;;;9.40;99.90;;;;;;4991760;28;19922;-67
2023/03/03 03:54:12;;;;;;;;;;;9.40;99.90;;;;;;4996277;28;20013;-67
2023/03/03 03:56:38;;;;;;;;;;;9.40;99.90;;;;;;4996148;28;19949;-67
2023/03/03 03:59:07;;;;;;;;;;;9.40;99.90;;;;;;4994512;28;19925;-68
2023/03/03 04:01:33;;;;;;;;;;;9.40;99.90;;;;;;5002219;28;19975;-67
2023/03/03 04:03:58;;;;;;;;;;;9.40;99.90;;;;;;5011795;28;19918;-65
2023/03/03 04:06:24;;;;;;;;;;;9.50;99.90;;;;;;5010638;28;19920;-66
2023/03/03 04:08:50;;;;;;;;;;;9.50;99.90;;;;;;5012158;28;19949;-67
2023/03/03 04:11:15;;;;;;;;;;;9.60;99.90;;;;;;5010346;28;19921;-69
2023/03/03 04:13:41;;;;;;;;;;;9.50;99.90;;;;;;5013417;28;19909;-69
2023/03/03 04:16:10;;;;;;;;;;;9.50;99.90;;;;;;5012716;28;19910;-67
2023/03/03 04:18:36;;;;;;;;;;;9.50;99.90;;;;;;5012501;28;20051;-67
2023/03/03 04:21:01;;;;;;;;;;;9.50;99.90;;;;;;5007408;28;19953;-67
2023/03/03 04:23:27;;;;;;;;;;;9.50;99.90;;;;;;5010589;28;19914;-67
2023/03/03 04:25:52;;;;;;;;;;;9.40;99.90;;;;;;5011646;28;19942;-67
2023/03/03 04:28:18;;;;;;;;;;;9.30;99.90;;;;;;5011737;28;19917;-65
2023/03/03 04:30:44;;;;;;;;;;;9.30;99.90;;;;;;5011584;28;20418;-67
2023/03/03 04:33:09;;;;;;;;;;;9.30;99.90;;;;;;4996650;28;20390;-67
2023/03/03 04:35:35;;;;;;;;;;;9.40;99.90;;;;;;4995725;28;20860;-69
2023/03/03 04:38:01;;;;;;;;;;;9.40;99.90;;;;;;4992868;28;19914;-67
2023/03/03 04:40:27;;;;;;;;;;;9.40;99.90;;;;;;4995622;28;20358;-67
2023/03/03 04:42:52;;;;;;;;;;;9.40;99.90;;;;;;4992580;28;19972;-68
2023/03/03 04:45:18;;;;;;;;;;;9.50;99.90;;;;;;4995163;28;20372;-68
2023/03/03 04:47:44;;;;;;;;;;;9.50;99.90;;;;;;4994944;28;19917;-68
2023/03/03 04:50:10;;;;;;;;;;;9.40;99.90;;;;;;4992437;28;19973;-68
2023/03/03 04:52:35;;;;;;;;;;;9.40;99.90;;;;;;4991809;28;19996;-67
2023/03/03 04:55:01;;;;;;;;;;;9.40;99.90;;;;;;4993277;28;19921;-65
2023/03/03 04:57:26;;;;;;;;;;;9.40;99.90;;;;;;4998009;28;19928;-70
2023/03/03 04:59:52;;;;;;;;;;;9.50;99.90;;;;;;4994992;28;19966;-69
2023/03/03 05:02:18;;;;;;;;;;;9.50;99.90;;;;;;4995741;28;20470;-67
2023/03/03 05:04:47;;;;;;;;;;;9.50;99.90;;;;;;4991637;28;19929;-68
2023/03/03 05:07:13;;;;;;;;;;;9.50;99.90;;;;;;4994710;28;19913;-67
2023/03/03 05:09:38;;;;;;;;;;;9.60;99.90;;;;;;4993037;28;19913;-67
2023/03/03 05:12:04;;;;;;;;;;;9.60;99.90;;;;;;4994467;28;19914;-67
2023/03/03 05:14:30;;;;;;;;;;;9.60;99.90;;;;;;4993764;28;20016;-67
2023/03/03 05:16:56;;;;;;;;;;;9.60;99.90;;;;;;4993390;28;19925;-67
2023/03/03 05:19:23;;;;;;;;;;;9.60;99.90;;;;;;4993090;28;20406;-67
2023/03/03 05:21:48;;;;;;;;;;;9.60;99.90;;;;;;5009081;28;19922;-68
2023/03/03 05:24:14;;;;;;;;;;;9.50;99.90;;;;;;4993801;28;19979;-72
2023/03/03 05:26:40;;;;;;;;;;;9.40;99.90;;;;;;4996677;28;19913;-65
2023/03/03 05:29:06;;;;;;;;;;;9.40;99.90;;;;;;4995699;28;19921;-67
2023/03/03 05:31:32;;;;;;;;;;;9.50;99.90;;;;;;4995575;28;19993;-66
2023/03/03 05:33:57;;;;;;;;;;;9.50;99.90;;;;;;4992741;28;19996;-67
2023/03/03 05:36:23;;;;;;;;;;;9.50;99.90;;;;;;4998208;28;19926;-68
2023/03/03 05:38:49;;;;;;;;;;;9.60;99.90;;;;;;4993419;28;20032;-67
2023/03/03 05:41:15;;;;;;;;;;;9.50;99.90;;;;;;4998585;28;19918;-70
2023/03/03 05:43:41;;;;;;;;;;;9.60;99.90;;;;;;4995275;28;20008;-69
2023/03/03 05:46:06;;;;;;;;;;;9.60;99.90;;;;;;5014942;28;20009;-70
2023/03/03 05:48:32;;;;;;;;;;;9.60;99.90;;;;;;5014226;28;19952;-69
2023/03/03 05:50:58;;;;;;;;;;;9.70;99.90;;;;;;4996230;28;20346;-66
2023/03/03 05:53:24;;;;;;;;;;;9.70;99.90;;;;;;5015486;28;19957;-69
2023/03/03 05:55:50;;;;;;;;;;;9.70;99.90;;;;;;4997466;28;19920;-66
2023/03/03 05:58:15;;;;;;;;;;;9.70;99.90;;;;;;5000381;28;19913;-67
2023/03/03 06:00:41;;;;;;;;;;;9.80;99.90;;;;;;5001927;28;19945;-67
2023/03/03 06:03:07;;;;;;;;;;;9.90;99.90;;;;;;4995496;28;19928;-67
2023/03/03 06:05:32;;;;;;;;;;;10.00;99.90;;;;;;4995051;28;20310;-69
2023/03/03 06:08:01;;;;;;;;;;;10.00;99.90;;;;;;4996559;28;19913;-70
2023/03/03 06:10:27;;;;;;;;;;;10.00;99.90;;;;;;4996460;28;19922;-72
2023/03/03 06:12:53;;;;;;;;;;;10.00;99.90;;;;;;4996251;28;19920;-67
2023/03/03 06:15:20;;;;;;;;;;;10.10;99.90;;;;;;5012120;28;19921;-69
2023/03/03 06:17:46;;;;;;;;;;;10.00;99.90;;;;;;4994958;28;19922;-67
2023/03/03 06:20:11;;;;;;;;;;;10.10;99.90;;;;;;4998426;28;19920;-72
2023/03/03 06:22:37;;;;;;;;;;;10.20;99.90;;;;;;4996536;28;19913;-67
2023/03/03 06:25:03;;;;;;;;;;;10.20;99.90;;;;;;5015235;28;19960;-66
2023/03/03 06:27:29;;;;;;;;;;;10.20;99.90;;;;;;4995972;28;19922;-67
2023/03/03 06:29:54;;;;;;;;;;;10.20;99.90;;;;;;4996382;28;19914;-67
2023/03/03 06:32:20;;;;;;;;;;;10.20;99.90;;;;;;4994114;28;19944;-67
2023/03/03 06:34:46;;;;;;;;;;;10.20;99.90;;;;;;4993933;28;19921;-70
2023/03/03 06:37:11;;;;;;;;;;;10.10;99.90;;;;;;4995396;28;19948;-69
2023/03/03 06:39:37;;;;;;;;;;;10.20;99.90;;;;;;4994379;28;19926;-69
2023/03/03 06:42:03;;;;;;;;;;;10.10;99.90;;;;;;4994678;28;19967;-65
2023/03/03 06:44:28;;;;;;;;;;;10.10;99.90;;;;;;4993116;28;19917;-69
2023/03/03 06:46:56;;;;;;;;;;;10.20;99.90;;;;;;4996134;28;19993;-67
2023/03/03 06:49:21;;;;;;;;;;;10.10;99.90;;;;;;4995089;28;19922;-68
2023/03/03 06:51:47;;;;;;;;;;;10.20;99.90;;;;;;4995760;28;21434;-67
2023/03/03 06:54:14;;;;;;;;;;;10.20;99.90;;;;;;4997992;28;19913;-68
2023/03/03 06:56:40;;;;;;;;;;;10.20;99.90;;;;;;5002126;28;20340;-67
2023/03/03 06:59:15;;;;;;;;;;;10.20;99.90;;;;;;4998600;28;19913;-68
2023/03/03 07:01:42;;;;;;;;;;;10.40;99.90;;;;;;5000816;28;20300;-68
2023/03/03 07:04:24;;;;;;;;;;;10.40;99.90;;;;;;4993985;28;19924;-68
2023/03/03 07:06:50;;;;;;;;;;;10.40;99.90;;;;;;5004884;28;19952;-66
2023/03/03 07:09:23;;;;;;;;;;;10.40;99.90;;;;;;5003981;28;20391;-70
2023/03/03 07:11:49;;;;;;;;;;;10.30;99.90;;;;;;4999895;28;19964;-67
2023/03/03 07:14:17;;;;;;;;;;;10.30;99.90;;;;;;4994339;28;20004;-68
2023/03/03 07:16:43;;;;;;;;;;;10.40;99.90;;;;;;4995559;28;19913;-69
2023/03/03 07:19:15;;;;;;;;;;;10.50;99.90;;;;;;4994625;28;20004;-69
2023/03/03 07:21:41;;;;;;;;;;;10.60;99.90;;;;;;4995370;28;19959;-69
2023/03/03 07:24:27;;;;;;;;;;;10.70;99.90;;;;;;4994036;28;19925;-67
2023/03/03 07:26:55;;;;;;;;;;;10.70;99.90;;;;;;5001365;28;20432;-69
2023/03/03 07:29:20;;;;;;;;;;;10.80;99.90;;;;;;4994236;28;20008;-67
2023/03/03 07:31:47;;;;;;;;;;;10.90;99.90;;;;;;4996243;28;20012;-67
2023/03/03 07:34:18;;;;;;;;;;;10.90;99.90;;;;;;4994692;28;19913;-68
2023/03/03 07:36:44;;;;;;;;;;;11.00;99.90;;;;;;4999058;28;20009;-70
2023/03/03 07:39:20;;;;;;;;;;;11.00;99.90;;;;;;4994162;28;19925;-70
2023/03/03 07:41:46;;;;;;;;;;;11.10;99.90;;;;;;4992816;28;19918;-68
2023/03/03 07:44:12;;;;;;;;;;;11.10;99.90;;;;;;4992831;28;20021;-69
2023/03/03 07:46:47;;;;;;;;;;;11.10;99.90;;;;;;4995607;28;19917;-68
2023/03/03 07:49:21;;;;;;;;;;;11.20;99.90;;;;;;4990512;28;19918;-70
2023/03/03 07:51:51;;;;;;;;;;;11.30;99.90;;;;;;4995000;28;19980;-70
2023/03/03 07:54:30;;;;;;;;;;;11.40;99.90;;;;;;4991974;28;19960;-70
2023/03/03 07:57:15;;;;;;;;;;;11.50;99.90;;;;;;5002903;28;19972;-69
2023/03/03 07:59:44;;;;;;;;;;;11.40;99.90;;;;;;5009260;28;19965;-70
2023/03/03 08:02:28;;;;;;;;;;;11.40;99.90;;;;;;5011307;28;20044;-67
2023/03/03 08:04:54;;;;;;;;;;;11.40;99.90;;;;;;5009405;28;19929;-70
2023/03/03 08:07:21;;;;;;;;;;;11.50;99.90;;;;;;5018044;28;19983;-70
2023/03/03 08:09:46;;;;;;;;;;;11.50;99.90;;;;;;5018587;28;19909;-69
2023/03/03 08:12:21;;;;;;;;;;;11.40;99.90;;;;;;5011797;28;19914;-70
2023/03/03 08:14:47;;;;;;;;;;;11.50;99.90;;;;;;5011115;28;20282;-68
2023/03/03 08:17:22;;;;;;;;;;;11.50;99.90;;;;;;5007025;28;19989;-69
2023/03/03 08:19:49;;;;;;;;;;;11.50;99.90;;;;;;5009723;28;20012;-68
2023/03/03 08:22:23;;;;;;;;;;;11.50;99.90;;;;;;5012494;28;20004;-69
2023/03/03 08:24:48;;;;;;;;;;;11.50;99.90;;;;;;5008970;28;19917;-68
2023/03/03 08:27:14;;;;;;;;;;;11.40;99.90;;;;;;5008408;28;19960;-70
2023/03/03 08:29:39;;;;;;;;;;;11.40;99.90;;;;;;5013422;28;20004;-69
2023/03/03 08:32:05;;;;;;;;;;;11.40;99.90;;;;;;5009373;28;20393;-69
2023/03/03 08:34:31;;;;;;;;;;;11.40;99.90;;;;;;5006803;28;19913;-68
2023/03/03 08:36:57;;;;;;;;;;;11.40;99.90;;;;;;5012361;28;20064;-69
2023/03/03 08:39:23;;;;;;;;;;;11.50;99.90;;;;;;5011872;28;19917;-68
2023/03/03 08:41:48;;;;;;;;;;;11.40;99.90;;;;;;5012870;28;19910;-70
2023/03/03 08:44:14;;;;;;;;;;;11.40;99.90;;;;;;5008735;28;20019;-70
2023/03/03 08:46:39;;;;;;;;;;;11.50;99.90;;;;;;5011733;28;19910;-70
2023/03/03 08:49:05;;;;;;;;;;;11.50;99.90;;;;;;5010757;28;19914;-70
2023/03/03 08:51:33;;;;;;;;;;;11.40;99.90;;;;;;5010463;28;20356;-70
2023/03/03 08:53:58;;;;;;;;;;;11.50;99.90;;;;;;5010904;28;19936;-70
2023/03/03 08:56:24;;;;;;;;;;;11.60;99.90;;;;;;5011803;28;19909;-71
2023/03/03 08:58:50;;;;;;;;;;;11.60;99.90;;;;;;5011766;28;19917;-70
2023/03/03 09:01:15;;;;;;;;;;;11.60;99.90;;;;;;5010138;28;19914;-70
2023/03/03 09:03:42;;;;;;;;;;;11.60;99.90;;;;;;5012164;28;19918;-70
2023/03/03 09:06:08;;;;;;;;;;;11.60;99.90;;;;;;5015736;28;19909;-71
2023/03/03 09:08:34;;;;;;;;;;;11.70;99.90;;;;;;5015752;28;19913;-70
2023/03/03 09:11:00;;;;;;;;;;;11.70;99.90;;;;;;5015172;28;20412;-70
2023/03/03 09:13:27;;;;;;;;;;;11.70;99.90;;;;;;5015991;28;19917;-70
2023/03/03 09:15:53;;;;;;;;;;;11.70;99.90;;;;;;5016506;28;19910;-69
2023/03/03 09:18:21;;;;;;;;;;;11.60;99.90;;;;;;5013589;28;19924;-72
2023/03/03 09:20:53;;;;;;;;;;;11.60;99.90;;;;;;5015596;28;19910;-69
2023/03/03 09:23:28;;;;;;;;;;;11.70;99.90;;;;;;5004361;28;19918;-70
2023/03/03 09:25:54;;;;;;;;;;;11.80;99.90;;;;;;5013254;28;19917;-70
2023/03/03 09:28:28;;;;;;;;;;;11.70;99.90;;;;;;5013762;28;20390;-71
2023/03/03 09:31:11;;;;;;;;;;;;;;;;;;;;;
2023/03/03 09:33:41;;;;;;;;;;;11.70;99.90;;;;;;5013700;28;19985;-70
2023/03/03 09:36:26;;;;;;;;;;;11.80;99.90;;;;;;5014779;28;19920;-71
2023/03/03 09:38:53;;;;;;;;;;;11.80;99.90;;;;;;5014310;28;20446;-70
2023/03/03 09:41:22;;;;;;;;;;;11.80;99.90;;;;;;5014604;28;19917;-71
2023/03/03 09:44:07;;;;;;;;;;;11.80;99.90;;;;;;5013821;28;19940;-71
2023/03/03 09:46:38;;;;;;;;;;;11.80;99.90;;;;;;5015274;28;19910;-73
2023/03/03 09:49:04;;;;;;;;;;;11.90;99.90;;;;;;5014334;28;19917;-71
2023/03/03 09:51:54;;;;;;;;;;;11.80;99.90;;;;;;5012065;28;19932;-73
2023/03/03 09:54:20;;;;;;;;;;;11.90;99.90;;;;;;5014052;28;20000;-71
2023/03/03 09:56:52;;;;;;;;;;;12.00;99.90;;;;;;5015706;28;19945;-71
2023/03/03 09:59:30;;;;;;;;;;;12.00;99.90;;;;;;5016734;28;19913;-70
2023/03/03 10:01:59;;;;;;;;;;;12.00;99.90;;;;;;5025280;28;19914;-68
2023/03/03 10:04:52;;;;;;;;;;;12.00;99.90;;;;;;5012229;28;19944;-69
2023/03/03 10:07:17;;;;;;;;;;;12.10;99.90;;;;;;5012901;28;19913;-70
2023/03/03 10:09:49;;;;;;;;;;;12.00;99.90;;;;;;5012423;28;19972;-67
2023/03/03 10:12:21;;;;;;;;;;;12.00;99.90;;;;;;5011604;28;20387;-68
2023/03/03 10:14:56;;;;;;;;;;;11.90;99.90;;;;;;5014444;28;19913;-67
2023/03/03 10:17:25;;;;;;;;;;;11.80;99.90;;;;;;5013033;28;19941;-67
2023/03/03 10:19:57;;;;;;;;;;;11.80;99.90;;;;;;5011268;28;19920;-68
2023/03/03 10:22:35;;;;;;;;;;;11.70;99.90;;;;;;5014672;28;19979;-68
2023/03/03 10:25:19;;;;;;;;;;;11.70;99.90;;;;;;5013295;28;20276;-67
2023/03/03 10:27:45;;;;;;;;;;;11.80;99.90;;;;;;5007243;28;19909;-71
2023/03/03 10:30:11;;;;;;;;;;;11.90;99.90;;;;;;5013505;28;19914;-68
2023/03/03 10:32:48;;;;;;;;;;;11.80;99.90;;;;;;5015076;28;20401;-68
2023/03/03 10:35:17;;;;;;;;;;;11.90;99.90;;;;;;5012301;28;19925;-68
2023/03/03 10:38:18;;;;;;;;;;;11.80;99.90;;;;;;5010896;28;19921;-67
2023/03/03 10:41:03;;;;;;;;;;;11.80;99.90;;;;;;4972075;28;20064;-68
2023/03/03 10:43:41;;;;;;;;;;;11.80;99.90;;;;;;5008214;28;19964;-68
2023/03/03 10:46:06;;;;;;;;;;;11.90;99.90;;;;;;5006926;28;19971;-68
2023/03/03 10:48:32;;;;;;;;;;;11.80;99.90;;;;;;5014551;28;19929;-68
2023/03/03 10:51:16;;;;;;;;;;;11.70;99.90;;;;;;5014716;28;20275;-70
2023/03/03 10:54:00;;;;;;;;;;;11.60;99.90;;;;;;5015218;28;19913;-69
2023/03/03 10:56:52;;;;;;;;;;;11.50;99.90;;;;;;5012097;28;19913;-68
2023/03/03 10:59:36;;;;;;;;;;;11.60;99.90;;;;;;5009780;28;20367;-68
2023/03/03 11:02:14;;;;;;;;;;;11.60;99.90;;;;;;5007456;28;20008;-68
2023/03/03 11:05:10;;;;;;;;;;;11.70;99.90;;;;;;5005759;28;19922;-67
2023/03/03 11:07:41;;;;;;;;;;;11.70;99.90;;;;;;5010347;28;19917;-68
2023/03/03 11:10:17;;;;;;;;;;;11.60;99.90;;;;;;4994594;28;20003;-68
2023/03/03 11:13:08;;;;;;;;;;;11.80;99.90;;;;;;4998135;28;19921;-68
2023/03/03 11:15:40;;;;;;;;;;;11.80;99.90;;;;;;5009213;28;19917;-68
2023/03/03 11:18:20;;;;;;;;;;;11.80;99.90;;;;;;5012647;28;19929;-68
2023/03/03 11:21:06;;;;;;;;;;;12.00;99.90;;;;;;5005305;28;19914;-68
2023/03/03 11:23:31;;;;;;;;;;;12.10;99.90;;;;;;5012346;28;19914;-68
2023/03/03 11:26:06;;;;;;;;;;;12.00;99.90;;;;;;5011370;28;19914;-68
2023/03/03 11:28:44;;;;;;;;;;;12.00;99.90;;;;;;5001676;28;20004;-68
2023/03/03 11:31:12;;;;;;;;;;;12.10;99.90;;;;;;5013127;28;19963;-69
2023/03/03 11:33:38;;;;;;;;;;;12.10;99.90;;;;;;5003600;28;19975;-68
2023/03/03 11:36:13;;;;;;;;;;;12.10;99.90;;;;;;5012202;28;20046;-67
2023/03/03 11:38:39;;;;;;;;;;;12.10;99.90;;;;;;5007273;28;19928;-68
2023/03/03 11:41:27;;;;;;;;;;;12.10;99.90;;;;;;5012026;28;19928;-68
2023/03/03 11:43:58;;;;;;;;;;;12.10;99.90;;;;;;5008994;28;20012;-67
2023/03/03 11:46:28;;;;;;;;;;;12.20;99.90;;;;;;4992126;28;19953;-68
2023/03/03 11:49:05;;;;;;;;;;;12.30;99.90;;;;;;5006984;28;20429;-68
2023/03/03 11:51:34;;;;;;;;;;;12.30;99.90;;;;;;5011684;28;19914;-68
2023/03/03 11:54:04;;;;;;;;;;;12.40;99.90;;;;;;5012414;28;19937;-68
2023/03/03 11:56:38;;;;;;;;;;;12.50;99.90;;;;;;5010214;28;19929;-68
2023/03/03 11:59:33;;;;;;;;;;;12.40;99.90;;;;;;5011821;28;19913;-68
2023/03/03 12:02:05;;;;;;;;;;;12.40;99.90;;;;;;4990081;28;20374;-68
2023/03/03 12:04:34;;;;;;;;;;;12.30;99.90;;;;;;5008758;28;19921;-68
2023/03/03 12:07:15;;;;;;;;;;;12.40;99.90;;;;;;5008523;28;19968;-67
2023/03/03 12:09:41;;;;;;;;;;;12.50;99.90;;;;;;5008138;28;20020;-68
2023/03/03 12:12:12;;;;;;;;;;;12.50;99.90;;;;;;5010347;28;19953;-67
2023/03/03 12:14:58;;;;;;;;;;;12.50;99.90;;;;;;5004341;28;19914;-68
2023/03/03 12:17:35;;;;;;;;;;;12.40;99.90;;;;;;4996314;28;19913;-68
2023/03/03 12:20:01;;;;;;;;;;;12.40;99.90;;;;;;5012008;28;19910;-67
2023/03/03 12:22:29;;;;;;;;;;;12.40;99.90;;;;;;5007579;28;19920;-66
2023/03/03 12:25:01;;;;;;;;;;;12.30;99.90;;;;;;5007123;28;19929;-68
2023/03/03 12:27:31;;;;;;;;;;;12.40;99.90;;;;;;5008240;28;20352;-67
2023/03/03 12:30:09;;;;;;;;;;;12.40;99.90;;;;;;5009094;28;19922;-68
2023/03/03 12:32:50;;;;;;;;;;;12.40;99.90;;;;;;5011252;28;19925;-68
2023/03/03 12:35:30;;;;;;;;;;;12.50;99.90;;;;;;5023120;28;19936;-70
2023/03/03 12:38:02;;;;;;;;;;;12.60;99.90;;;;;;5008196;28;20534;-69
2023/03/03 12:40:27;;;;;;;;;;;12.50;99.90;;;;;;5011644;28;19925;-69
2023/03/03 12:42:58;;;;;;;;;;;12.60;99.90;;;;;;5009180;28;20060;-69
2023/03/03 12:45:30;;;;;;;;;;;12.60;99.90;;;;;;5023552;28;19975;-69
2023/03/03 12:47:55;;;;;;;;;;;12.70;99.90;;;;;;5012098;28;19909;-69
2023/03/03 12:50:26;;;;;;;;;;;12.80;99.90;;;;;;5012034;28;20484;-71
2023/03/03 12:53:12;;;;;;;;;;;12.80;99.90;;;;;;5010876;28;19913;-68
2023/03/03 12:55:56;;;;;;;;;;;12.80;99.90;;;;;;5011102;28;19913;-70
2023/03/03 12:58:33;;;;;;;;;;;12.90;99.90;;;;;;5012239;28;19916;-68
2023/03/03 13:00:58;;;;;;;;;;;13.00;99.90;;;;;;5010982;28;19910;-69
2023/03/03 13:03:43;;;;;;;;;;;13.00;99.90;;;;;;5009619;28;19928;-68
2023/03/03 13:06:20;;;;;;;;;;;12.90;99.90;;;;;;5014372;28;19968;-68
2023/03/03 13:09:04;;;;;;;;;;;13.00;99.90;;;;;;5014366;28;19910;-68
2023/03/03 13:11:30;;;;;;;;;;;13.00;99.90;;;;;;5013900;28;19953;-69
2023/03/03 13:13:58;;;;;;;;;;;13.00;99.90;;;;;;5014812;28;20092;-68
2023/03/03 13:16:28;;;;;;;;;;;13.00;99.90;;;;;;5013223;28;19913;-69
2023/03/03 13:19:00;;;;;;;;;;;13.00;99.90;;;;;;5010876;28;19924;-69
2023/03/03 13:21:30;;;;;;;;;;;13.10;99.90;;;;;;5011213;28;19910;-68
2023/03/03 13:24:14;;;;;;;;;;;13.10;99.90;;;;;;5011702;28;20420;-69
2023/03/03 13:26:42;;;;;;;;;;;13.10;99.90;;;;;;5010816;28;19914;-69
2023/03/03 13:29:20;;;;;;;;;;;13.20;99.90;;;;;;5014492;28;19909;-68
2023/03/03 13:31:48;;;;;;;;;;;13.10;99.90;;;;;;5014328;28;20311;-68
2023/03/03 13:34:23;;;;;;;;;;;12.90;99.90;;;;;;5013962;28;19917;-68
2023/03/03 13:36:53;;;;;;;;;;;12.90;99.90;;;;;;5015048;28;19943;-68
2023/03/03 13:39:21;;;;;;;;;;;12.90;99.90;;;;;;5014515;28;19972;-68
2023/03/03 13:42:01;;;;;;;;;;;13.00;99.90;;;;;;5014436;28;19971;-69
2023/03/03 13:44:30;;;;;;;;;;;13.10;99.90;;;;;;5014557;28;20116;-68
2023/03/03 13:46:59;;;;;;;;;;;13.10;99.90;;;;;;5011883;28;19941;-68
2023/03/03 13:49:43;;;;;;;;;;;13.10;99.90;;;;;;5014035;28;19910;-69
2023/03/03 13:52:14;;;;;;;;;;;13.20;99.90;;;;;;5013225;28;19932;-69
2023/03/03 13:54:47;;;;;;;;;;;13.20;99.90;;;;;;5013784;28;19910;-69
2023/03/03 13:57:31;;;;;;;;;;;13.10;99.90;;;;;;5014559;28;19949;-69
2023/03/03 14:00:06;;;;;;;;;;;13.10;99.90;;;;;;5014658;28;20287;-68
2023/03/03 14:02:37;;;;;;;;;;;13.10;99.90;;;;;;5014949;28;19956;-69
2023/03/03 14:05:04;;;;;;;;;;;13.10;99.90;;;;;;5012268;28;20354;-68
2023/03/03 14:07:36;;;;;;;;;;;13.10;99.90;;;;;;5014623;28;19936;-69
2023/03/03 14:10:24;;;;;;;;;;;13.10;99.90;;;;;;5012755;28;20404;-68
2023/03/03 14:12:52;;;;;;;;;;;13.20;99.90;;;;;;5013029;28;19914;-69
2023/03/03 14:15:24;;;;;;;;;;;13.20;99.90;;;;;;5012203;28;19964;-69
2023/03/03 14:18:25;;;;;;;;;;;13.30;99.90;;;;;;5014456;28;19909;-68
2023/03/03 14:20:52;;;;;;;;;;;13.10;99.90;;;;;;4964714;28;20005;-68
2023/03/03 14:23:30;;;;;;;;;;;13.10;99.90;;;;;;5001253;28;19914;-68
2023/03/03 14:25:57;;;;;;;;;;;13.10;99.90;;;;;;5014712;28;19935;-68
2023/03/03 14:28:23;;;;;;;;;;;13.00;99.90;;;;;;5014429;28;19909;-68
2023/03/03 14:30:52;;;;;;;;;;;12.90;99.90;;;;;;5012889;28;19924;-69
2023/03/03 14:33:19;;;;;;;;;;;12.90;99.90;;;;;;5013862;28;19909;-68
2023/03/03 14:35:56;;;;;;;;;;;12.90;99.90;;;;;;5013744;28;19957;-68
2023/03/03 14:38:23;;;;;;;;;;;12.90;99.90;;;;;;5014448;28;20252;-69